Time;durP1;ratioP1;P1;durP2;ratioP2;P2;SDS_P1;SDS_P2;PMS_P1;PMS_P2;Temp;Humidity;BMP_temperature;BMP_pressure;BME280_temperature;BME280_humidity;BME280_pressure;Samples;Min_cycle;Max_cycle;Signal;HPM_P1;HPM_P2
2022/03/20 00:00:43;;;;;;;11.77;3.72;;;7.20;57.80;;;;;;9184164;19;20025;-64
2022/03/20 00:03:48;;;;;;;7.97;3.40;;;7.10;57.80;;;;;;9184281;19;20022;-60
2022/03/20 00:06:53;;;;;;;8.63;3.90;;;7.10;57.80;;;;;;9185414;19;20030;-62
2022/03/20 00:09:58;;;;;;;10.82;4.55;;;7.10;58.00;;;;;;9180708;19;20090;-61
2022/03/20 00:13:09;;;;;;;8.65;4.00;;;7.10;58.00;;;;;;9184574;19;20014;-61
2022/03/20 00:16:14;;;;;;;7.80;3.38;;;7.00;58.10;;;;;;9181916;19;20023;-62
2022/03/20 00:19:19;;;;;;;10.88;3.92;;;7.00;58.70;;;;;;9181430;19;20015;-61
2022/03/20 00:22:24;;;;;;;5.95;3.50;;;7.00;58.20;;;;;;9185081;19;20030;-62
2022/03/20 00:25:29;;;;;;;9.55;3.88;;;6.90;58.40;;;;;;9184197;19;20495;-60
2022/03/20 00:28:37;;;;;;;10.05;3.65;;;6.90;58.30;;;;;;9185007;19;20014;-61
2022/03/20 00:31:42;;;;;;;9.55;3.58;;;6.90;58.50;;;;;;9182594;19;20014;-61
2022/03/20 00:34:47;;;;;;;15.20;4.75;;;6.80;58.50;;;;;;9183554;19;20352;-60
2022/03/20 00:37:52;;;;;;;6.82;3.55;;;6.80;58.60;;;;;;9181924;19;20498;-61
2022/03/20 00:40:58;;;;;;;9.20;4.18;;;6.70;58.60;;;;;;9184237;19;20014;-60
2022/03/20 00:44:06;;;;;;;8.77;3.95;;;6.70;58.70;;;;;;9182192;19;20360;-63
2022/03/20 00:47:11;;;;;;;6.68;3.30;;;6.70;58.90;;;;;;9182438;19;20463;-62
2022/03/20 00:50:16;;;;;;;10.20;3.53;;;6.70;58.90;;;;;;9184490;19;20041;-62
2022/03/20 00:53:21;;;;;;;8.35;3.78;;;6.60;58.90;;;;;;9182575;19;20469;-61
2022/03/20 00:56:26;;;;;;;10.45;3.60;;;6.70;59.10;;;;;;9177190;19;20018;-61
2022/03/20 00:59:34;;;;;;;8.10;3.55;;;6.60;59.20;;;;;;9180145;19;20029;-60
2022/03/20 01:02:40;;;;;;;14.60;5.13;;;6.60;59.30;;;;;;9183328;19;20113;-62
2022/03/20 01:05:45;;;;;;;8.98;4.03;;;6.60;59.40;;;;;;9183507;19;20471;-61
2022/03/20 01:08:52;;;;;;;11.05;4.10;;;6.50;59.40;;;;;;9181527;19;20013;-61
2022/03/20 01:11:58;;;;;;;10.80;4.20;;;6.50;59.50;;;;;;9180994;19;20054;-61
2022/03/20 01:15:07;;;;;;;10.85;4.05;;;6.50;59.60;;;;;;9181840;19;20475;-61
2022/03/20 01:18:12;;;;;;;17.27;4.50;;;6.40;59.70;;;;;;9180274;19;20039;-62
2022/03/20 01:21:17;;;;;;;7.45;4.18;;;6.40;59.80;;;;;;9180722;19;20011;-62
2022/03/20 01:24:24;;;;;;;11.15;4.95;;;6.40;59.80;;;;;;9179586;19;20011;-62
2022/03/20 01:27:29;;;;;;;14.60;4.72;;;6.40;59.90;;;;;;9178940;19;20384;-60
2022/03/20 01:30:37;;;;;;;13.10;4.97;;;6.30;59.90;;;;;;9178839;19;20018;-60
2022/03/20 01:33:42;;;;;;;7.80;4.78;;;6.30;60.10;;;;;;9177179;19;20053;-60
2022/03/20 01:36:47;;;;;;;12.38;5.75;;;6.30;60.10;;;;;;9179787;19;20018;-60
2022/03/20 01:39:52;;;;;;;13.57;5.20;;;6.30;60.30;;;;;;9176245;19;20529;-61
2022/03/20 01:42:57;;;;;;;10.95;5.32;;;6.20;60.20;;;;;;9179988;19;20014;-61
2022/03/20 01:46:05;;;;;;;16.95;5.57;;;6.20;60.30;;;;;;9178388;19;20507;-61
2022/03/20 01:49:10;;;;;;;15.43;5.93;;;6.20;60.50;;;;;;9179041;19;20018;-62
2022/03/20 01:52:24;;;;;;;14.93;6.00;;;6.20;60.50;;;;;;9180128;19;20048;-61
2022/03/20 01:55:29;;;;;;;14.13;4.43;;;6.10;60.50;;;;;;9175074;19;20007;-62
2022/03/20 01:58:35;;;;;;;13.90;6.00;;;6.10;60.60;;;;;;9179553;19;20029;-61
2022/03/20 02:01:42;;;;;;;16.08;6.40;;;6.10;60.60;;;;;;9175225;19;20447;-61
2022/03/20 02:04:48;;;;;;;22.92;6.60;;;6.00;60.60;;;;;;9178328;19;20014;-61
2022/03/20 02:07:53;;;;;;;14.65;6.75;;;6.00;60.70;;;;;;9175410;19;20111;-62
2022/03/20 02:10:59;;;;;;;16.55;6.82;;;6.00;60.70;;;;;;9176611;19;20019;-60
2022/03/20 02:14:04;;;;;;;18.90;6.60;;;6.00;60.80;;;;;;9179105;19;20022;-61
2022/03/20 02:17:15;;;;;;;13.00;6.78;;;6.00;60.90;;;;;;9176705;19;20022;-60
2022/03/20 02:20:22;;;;;;;18.40;8.15;;;5.90;60.90;;;;;;9181269;19;20023;-61
2022/03/20 02:23:30;;;;;;;21.77;7.63;;;5.90;60.80;;;;;;9180785;19;20026;-62
2022/03/20 02:26:35;;;;;;;20.20;8.10;;;5.90;60.90;;;;;;9178685;19;20794;-61
2022/03/20 02:29:42;;;;;;;18.38;8.25;;;5.90;60.80;;;;;;9180343;19;20006;-60
2022/03/20 02:32:49;;;;;;;19.85;7.65;;;5.90;60.90;;;;;;9180213;19;20022;-61
2022/03/20 02:35:55;;;;;;;15.48;7.90;;;5.80;60.90;;;;;;9176249;19;20123;-60
2022/03/20 02:39:02;;;;;;;15.80;7.95;;;5.80;60.90;;;;;;9179218;19;20472;-62
2022/03/20 02:42:13;;;;;;;14.55;7.97;;;5.80;61.00;;;;;;9178359;19;20022;-61
2022/03/20 02:45:20;;;;;;;18.95;8.75;;;5.80;61.00;;;;;;9180197;19;20017;-61
2022/03/20 02:48:26;;;;;;;20.40;8.88;;;5.80;61.70;;;;;;9178960;19;20353;-61
2022/03/20 02:51:31;;;;;;;15.95;8.55;;;5.70;61.00;;;;;;9178675;19;20054;-62
2022/03/20 02:54:42;;;;;;;21.45;9.90;;;5.70;61.00;;;;;;9173589;19;20114;-60
2022/03/20 02:57:47;;;;;;;17.70;8.70;;;5.70;61.00;;;;;;9175724;19;20487;-60
2022/03/20 03:00:55;;;;;;;20.88;9.05;;;5.70;61.00;;;;;;9179453;19;20483;-61
2022/03/20 03:04:01;;;;;;;20.23;9.75;;;5.60;61.00;;;;;;9176135;19;20377;-61
2022/03/20 03:07:06;;;;;;;17.85;8.65;;;5.60;61.00;;;;;;9178121;19;20007;-60
2022/03/20 03:13:34;;;;;;;22.13;10.45;;;5.60;61.10;;;;;;9176780;19;20021;-60
2022/03/20 03:16:40;;;;;;;15.48;9.50;;;5.60;61.00;;;;;;9177648;19;20014;-61
2022/03/20 03:19:45;;;;;;;21.80;9.48;;;5.60;61.10;;;;;;9179043;19;20033;-60
2022/03/20 03:22:50;;;;;;;23.88;9.82;;;5.50;61.00;;;;;;9177296;19;20014;-60
2022/03/20 03:25:58;;;;;;;19.67;10.20;;;5.50;61.00;;;;;;9176210;19;20021;-61
2022/03/20 03:29:03;;;;;;;21.42;10.20;;;5.50;61.10;;;;;;9175781;19;20475;-62
2022/03/20 03:32:09;;;;;;;17.95;9.40;;;5.50;61.00;;;;;;9175323;19;20372;-61
2022/03/20 03:38:36;;;;;;;17.92;10.05;;;5.50;61.10;;;;;;9173932;19;20098;-61
2022/03/20 03:41:44;;;;;;;19.63;9.70;;;5.50;61.00;;;;;;9175317;19;20099;-59
2022/03/20 03:44:51;;;;;;;23.30;10.10;;;5.40;61.00;;;;;;9178308;19;20578;-60
2022/03/20 03:47:57;;;;;;;26.83;10.75;;;5.40;61.00;;;;;;9175447;19;20020;-61
2022/03/20 03:51:02;;;;;;;20.40;10.05;;;5.40;61.00;;;;;;9176406;19;20018;-61
2022/03/20 03:54:07;;;;;;;22.83;10.80;;;5.40;61.00;;;;;;9174417;19;20013;-61
2022/03/20 03:57:15;;;;;;;29.00;10.75;;;5.40;61.00;;;;;;9184737;19;20025;-60
2022/03/20 04:00:24;;;;;;;29.05;10.98;;;5.30;61.00;;;;;;9184995;19;20348;-62
2022/03/20 04:03:29;;;;;;;27.70;12.00;;;5.30;61.00;;;;;;9185651;19;20039;-61
2022/03/20 04:06:35;;;;;;;27.33;10.77;;;5.30;61.00;;;;;;9185017;19;20010;-61
2022/03/20 04:09:40;;;;;;;21.73;10.38;;;5.30;61.00;;;;;;9184078;19;20042;-61
2022/03/20 04:12:48;;;;;;;23.70;11.18;;;5.30;61.00;;;;;;9184461;19;20052;-60
2022/03/20 04:15:53;;;;;;;21.60;10.48;;;5.30;61.00;;;;;;9185958;19;20010;-60
2022/03/20 04:18:58;;;;;;;21.67;11.70;;;5.30;61.00;;;;;;9183374;19;20014;-60
2022/03/20 04:22:03;;;;;;;23.40;11.43;;;5.20;60.90;;;;;;9185055;19;20029;-60
2022/03/20 04:25:11;;;;;;;28.05;12.35;;;5.20;60.90;;;;;;9183070;19;20104;-60
2022/03/20 04:28:21;;;;;;;23.80;11.98;;;5.20;60.90;;;;;;9183683;19;20026;-60
2022/03/20 04:31:26;;;;;;;23.23;11.27;;;5.20;60.90;;;;;;9182756;19;20014;-59
2022/03/20 04:34:31;;;;;;;26.45;12.60;;;5.10;60.90;;;;;;9182390;19;20025;-61
2022/03/20 04:37:36;;;;;;;23.42;11.25;;;5.10;60.90;;;;;;9181919;19;20699;-62
2022/03/20 04:40:41;;;;;;;25.92;12.38;;;5.10;60.90;;;;;;9183936;19;20093;-62
2022/03/20 04:43:50;;;;;;;24.92;11.82;;;5.10;60.90;;;;;;9183574;19;20491;-63
2022/03/20 04:46:55;;;;;;;26.52;12.13;;;5.10;60.90;;;;;;9183837;19;20015;-61
2022/03/20 04:59:55;;;;;;;26.05;12.27;;;5.00;60.80;;;;;;9181123;19;20033;-62
2022/03/20 05:03:00;;;;;;;31.23;13.50;;;5.00;60.80;;;;;;9181060;19;20021;-61
2022/03/20 05:06:07;;;;;;;25.48;12.27;;;5.00;60.80;;;;;;9178935;19;20018;-60
2022/03/20 05:15:50;;;;;;;26.38;12.45;;;4.90;60.80;;;;;;9183785;19;20488;-61
2022/03/20 05:18:55;;;;;;;24.85;12.65;;;4.90;60.80;;;;;;9180253;19;20014;-62
2022/03/20 05:22:01;;;;;;;25.45;12.85;;;4.90;60.80;;;;;;9180920;19;20010;-60
2022/03/20 05:25:10;;;;;;;29.60;13.38;;;4.80;60.70;;;;;;9181707;19;20021;-61
2022/03/20 05:28:16;;;;;;;30.65;13.27;;;4.80;60.70;;;;;;9183390;19;20017;-60
2022/03/20 05:31:24;;;;;;;24.48;12.48;;;4.80;60.70;;;;;;9182923;19;20007;-61
2022/03/20 05:34:29;;;;;;;24.02;11.88;;;4.80;60.80;;;;;;9179978;19;20007;-61
2022/03/20 05:37:35;;;;;;;29.25;12.10;;;4.80;60.80;;;;;;9183115;19;20011;-61
2022/03/20 05:40:41;;;;;;;29.40;13.38;;;4.70;60.70;;;;;;9180683;19;20034;-62
2022/03/20 05:43:46;;;;;;;32.38;12.75;;;4.70;60.70;;;;;;9181899;19;20040;-59
2022/03/20 05:46:56;;;;;;;28.05;13.75;;;4.70;60.70;;;;;;9182491;19;20019;-61
2022/03/20 05:50:02;;;;;;;24.95;12.40;;;4.70;60.80;;;;;;9181470;19;20025;-63
2022/03/20 05:53:07;;;;;;;24.70;12.40;;;4.60;60.70;;;;;;9182305;19;20380;-61
2022/03/20 05:59:30;;;;;;;27.48;12.20;;;4.60;60.70;;;;;;9178577;19;20042;-60
2022/03/20 06:02:39;;;;;;;27.33;12.07;;;4.60;60.60;;;;;;9179591;19;20014;-60
2022/03/20 06:05:44;;;;;;;26.98;12.73;;;4.60;60.60;;;;;;9178047;19;20014;-61
2022/03/20 06:08:49;;;;;;;30.13;13.73;;;4.60;60.70;;;;;;9179800;19;20044;-60
2022/03/20 06:11:55;;;;;;;25.35;13.20;;;4.60;60.60;;;;;;9178906;19;20029;-61
2022/03/20 06:15:08;;;;;;;29.73;13.73;;;4.60;60.60;;;;;;9181325;19;20025;-60
2022/03/20 06:18:16;;;;;;;28.83;12.70;;;4.60;60.60;;;;;;9173248;19;20018;-62
2022/03/20 06:21:21;;;;;;;28.85;13.43;;;4.60;60.60;;;;;;9177330;19;20029;-64
2022/03/20 06:24:26;;;;;;;26.40;13.07;;;4.60;60.60;;;;;;9178126;19;20051;-60
2022/03/20 06:27:31;;;;;;;27.02;13.82;;;4.60;60.60;;;;;;9175324;19;20048;-61
2022/03/20 06:30:37;;;;;;;24.77;14.02;;;4.60;60.60;;;;;;9178788;19;20059;-62
2022/03/20 06:33:45;;;;;;;25.60;13.45;;;4.60;60.60;;;;;;9176922;19;20391;-61
2022/03/20 06:36:52;;;;;;;25.33;12.65;;;4.60;60.60;;;;;;9166452;19;20025;-61
2022/03/20 06:39:57;;;;;;;26.65;13.05;;;4.60;60.60;;;;;;9160356;19;20017;-61
2022/03/20 06:43:02;;;;;;;26.80;13.52;;;4.60;60.60;;;;;;9164190;19;20037;-63
2022/03/20 06:46:08;;;;;;;25.30;13.48;;;4.60;60.50;;;;;;9162334;19;20025;-60
2022/03/20 06:49:34;;;;;;;26.73;14.32;;;4.60;60.60;;;;;;9164491;19;20734;-61
2022/03/20 06:52:41;;;;;;;28.77;14.00;;;4.70;60.50;;;;;;9156369;19;20050;-61
2022/03/20 06:55:47;;;;;;;27.60;14.40;;;4.70;60.50;;;;;;9161432;19;20462;-61
2022/03/20 06:58:52;;;;;;;26.80;13.13;;;4.70;60.50;;;;;;9157385;19;20010;-61
2022/03/20 07:01:58;;;;;;;27.88;13.52;;;4.70;60.40;;;;;;9154974;19;20018;-61
2022/03/20 07:05:06;;;;;;;27.27;13.68;;;4.70;60.40;;;;;;9170359;19;20051;-61
2022/03/20 07:08:11;;;;;;;32.13;14.98;;;4.70;60.40;;;;;;9173015;19;20025;-62
2022/03/20 07:11:17;;;;;;;27.63;13.98;;;4.80;60.40;;;;;;9173993;19;20383;-61
2022/03/20 07:14:21;;;;;;;28.83;13.43;;;4.80;60.30;;;;;;9175433;19;20043;-60
2022/03/20 07:17:28;;;;;;;32.75;13.93;;;4.80;60.40;;;;;;9174237;19;20864;-62
2022/03/20 07:20:35;;;;;;;32.22;14.07;;;4.90;60.40;;;;;;9171325;19;20506;-61
2022/03/20 07:23:40;;;;;;;27.73;13.15;;;4.90;60.40;;;;;;9176300;19;20018;-62
2022/03/20 07:30:06;;;;;;;27.00;14.18;;;4.90;60.20;;;;;;9177592;19;20018;-61
2022/03/20 07:33:11;;;;;;;31.65;14.30;;;5.00;60.20;;;;;;9185142;19;20543;-61
2022/03/20 07:36:18;;;;;;;27.17;13.43;;;5.00;60.10;;;;;;9185650;19;20021;-62
2022/03/20 07:39:23;;;;;;;33.00;14.18;;;5.00;60.10;;;;;;9185698;19;20019;-61
2022/03/20 07:42:28;;;;;;;29.65;14.98;;;5.10;60.10;;;;;;9186231;19;20007;-62
2022/03/20 07:45:34;;;;;;;32.33;13.52;;;5.10;60.00;;;;;;9189295;19;20352;-61
2022/03/20 07:48:40;;;;;;;35.92;14.38;;;5.20;60.00;;;;;;9186964;19;20482;-61
2022/03/20 07:51:49;;;;;;;30.65;14.82;;;5.20;60.00;;;;;;9187921;19;20006;-61
2022/03/20 07:54:54;;;;;;;27.85;14.77;;;5.20;60.00;;;;;;9183917;19;20017;-62
2022/03/20 07:57:59;;;;;;;30.13;14.68;;;5.20;60.00;;;;;;9187337;19;20380;-62
2022/03/20 08:01:04;;;;;;;28.67;15.48;;;5.30;60.00;;;;;;9184932;19;20103;-61
2022/03/20 08:04:10;;;;;;;27.67;13.98;;;5.40;60.00;;;;;;9185110;19;20100;-65
2022/03/20 08:07:19;;;;;;;29.70;15.18;;;5.50;60.10;;;;;;9185223;19;20011;-64
2022/03/20 08:10:24;;;;;;;29.95;15.10;;;5.60;60.10;;;;;;9184814;19;20014;-65
2022/03/20 08:13:31;;;;;;;31.25;15.13;;;5.70;60.10;;;;;;9184589;19;20364;-65
2022/03/20 08:16:38;;;;;;;34.65;15.98;;;5.80;60.00;;;;;;9185193;19;20006;-63
2022/03/20 08:19:43;;;;;;;31.20;14.50;;;5.90;59.90;;;;;;9185788;19;20010;-66
2022/03/20 08:22:52;;;;;;;28.35;14.75;;;6.00;59.80;;;;;;9185279;19;20107;-67
2022/03/20 08:25:57;;;;;;;37.47;16.73;;;6.20;59.80;;;;;;9184823;19;20085;-65
2022/03/20 08:29:02;;;;;;;29.20;15.10;;;6.40;59.80;;;;;;9185818;19;20022;-65
2022/03/20 08:32:08;;;;;;;25.85;14.15;;;6.50;59.70;;;;;;9183325;19;20011;-67
2022/03/20 08:35:14;;;;;;;29.73;16.17;;;6.60;59.60;;;;;;9186114;19;20018;-64
2022/03/20 08:38:21;;;;;;;34.30;15.52;;;6.80;59.60;;;;;;9183352;19;20011;-66
2022/03/20 08:41:26;;;;;;;33.47;16.13;;;7.00;59.50;;;;;;9182389;19;20466;-64
2022/03/20 08:44:31;;;;;;;33.10;15.10;;;7.10;59.50;;;;;;9186461;19;20107;-63
2022/03/20 08:47:38;;;;;;;32.00;15.50;;;7.30;59.30;;;;;;9185578;19;20492;-65
2022/03/20 08:50:44;;;;;;;31.48;15.70;;;7.40;59.10;;;;;;9186386;19;20014;-67
2022/03/20 08:53:52;;;;;;;32.08;15.45;;;7.60;59.10;;;;;;9185355;19;20014;-64
2022/03/20 08:56:57;;;;;;;31.73;15.02;;;7.70;58.90;;;;;;9184173;19;20022;-66
2022/03/20 09:00:02;;;;;;;34.17;15.75;;;7.90;58.90;;;;;;9184292;19;20022;-66
2022/03/20 09:03:07;;;;;;;31.55;15.77;;;8.00;58.80;;;;;;9184252;19;20030;-67
2022/03/20 09:06:12;;;;;;;31.48;15.50;;;8.20;58.70;;;;;;9185136;19;20014;-65
2022/03/20 09:09:20;;;;;;;29.98;15.35;;;8.40;58.70;;;;;;9180909;19;20361;-65
2022/03/20 09:12:26;;;;;;;32.30;15.85;;;8.50;58.50;;;;;;9184336;19;20498;-69
2022/03/20 09:15:32;;;;;;;37.35;16.48;;;8.70;58.50;;;;;;9185271;19;20011;-66
2022/03/20 09:21:55;;;;;;;33.05;15.75;;;9.00;58.10;;;;;;9180823;19;20095;-64
2022/03/20 09:25:03;;;;;;;33.53;16.00;;;9.10;57.90;;;;;;9184710;19;20336;-65
2022/03/20 09:28:10;;;;;;;39.25;17.50;;;9.30;57.80;;;;;;9183184;19;20022;-64
2022/03/20 09:31:16;;;;;;;33.97;17.48;;;9.40;57.60;;;;;;9182561;19;20089;-65
2022/03/20 09:34:21;;;;;;;32.25;16.65;;;9.50;57.50;;;;;;9178060;19;20040;-64
2022/03/20 09:37:27;;;;;;;29.08;16.15;;;9.60;57.50;;;;;;9178669;19;20090;-65
2022/03/20 09:40:37;;;;;;;35.13;17.85;;;9.70;57.30;;;;;;9175578;19;20018;-65
2022/03/20 09:43:46;;;;;;;32.33;17.02;;;9.90;57.20;;;;;;9178193;19;20018;-65
2022/03/20 09:46:52;;;;;;;38.45;17.88;;;10.00;57.00;;;;;;9176947;19;20033;-64
2022/03/20 09:49:59;;;;;;;45.67;18.55;;;10.20;56.90;;;;;;9178100;19;20014;-64
2022/03/20 09:53:05;;;;;;;41.45;17.58;;;10.30;56.80;;;;;;9172860;19;20014;-64
2022/03/20 09:56:15;;;;;;;32.95;16.92;;;10.40;56.60;;;;;;9171188;19;20038;-65
2022/03/20 09:59:20;;;;;;;31.95;17.60;;;10.40;56.30;;;;;;9174306;19;20011;-65
2022/03/20 10:02:28;;;;;;;33.50;17.27;;;10.50;56.20;;;;;;9175286;19;20372;-64
2022/03/20 10:05:34;;;;;;;33.08;16.98;;;10.60;56.00;;;;;;9176172;19;20412;-64
2022/03/20 10:08:39;;;;;;;32.35;17.70;;;10.70;56.00;;;;;;9176153;19;20010;-65
2022/03/20 10:11:51;;;;;;;41.33;17.30;;;10.80;56.00;;;;;;9174394;19;20976;-64
2022/03/20 10:14:57;;;;;;;32.10;17.83;;;10.90;55.80;;;;;;9175580;19;20018;-65
2022/03/20 10:18:18;;;;;;;42.60;19.08;;;11.10;55.80;;;;;;9174221;19;20029;-65
2022/03/20 10:21:24;;;;;;;32.05;17.55;;;11.20;55.80;;;;;;9171416;19;20090;-66
2022/03/20 10:24:30;;;;;;;34.28;17.77;;;11.30;55.70;;;;;;9174567;19;20751;-66
2022/03/20 10:27:38;;;;;;;32.75;17.42;;;11.50;55.50;;;;;;9172202;19;20010;-64
2022/03/20 10:30:43;;;;;;;37.15;17.33;;;11.60;55.40;;;;;;9164883;19;20014;-65
2022/03/20 10:34:02;;;;;;;39.55;18.35;;;11.70;55.30;;;;;;9169664;19;20017;-65
2022/03/20 10:37:07;;;;;;;36.58;19.52;;;11.80;54.90;;;;;;9167518;19;20014;-65
2022/03/20 10:40:14;;;;;;;32.97;17.50;;;11.90;55.10;;;;;;9171629;19;20014;-64
2022/03/20 10:43:22;;;;;;;31.38;17.08;;;12.00;55.00;;;;;;9170269;19;20760;-65
2022/03/20 10:46:28;;;;;;;33.45;17.95;;;12.10;54.70;;;;;;9162294;19;20026;-64
2022/03/20 10:49:35;;;;;;;34.13;18.48;;;12.10;54.60;;;;;;9170356;19;20653;-63
2022/03/20 10:52:40;;;;;;;35.08;19.52;;;12.20;54.60;;;;;;9169145;19;20015;-65
2022/03/20 10:55:47;;;;;;;32.25;18.83;;;12.20;54.50;;;;;;9166250;19;20021;-63
2022/03/20 10:58:55;;;;;;;32.20;19.38;;;12.30;54.50;;;;;;9166673;19;20022;-65
2022/03/20 11:02:00;;;;;;;34.40;18.73;;;12.30;54.20;;;;;;9162700;19;20022;-63
2022/03/20 11:05:06;;;;;;;36.25;18.95;;;12.40;54.20;;;;;;9170438;19;20014;-63
2022/03/20 11:08:11;;;;;;;35.58;18.85;;;12.40;54.00;;;;;;9178704;19;20379;-65
2022/03/20 11:11:16;;;;;;;37.72;18.20;;;12.30;53.90;;;;;;9179069;19;20015;-65
2022/03/20 11:14:25;;;;;;;35.22;18.38;;;12.30;53.90;;;;;;9182703;19;20029;-64
2022/03/20 11:17:39;;;;;;;31.85;18.00;;;12.30;53.70;;;;;;9179214;19;20840;-65
2022/03/20 11:20:48;;;;;;;;;;;12.20;53.50;;;;;;9182842;19;20025;-66
2022/03/20 11:23:55;;;;;;;35.55;18.92;;;12.20;54.00;;;;;;9182922;19;20604;-66
2022/03/20 11:27:02;;;;;;;38.17;20.25;;;12.10;53.90;;;;;;9183418;19;20022;-65
2022/03/20 11:30:13;;;;;;;35.75;18.27;;;12.10;53.90;;;;;;9180859;19;20471;-65
2022/03/20 11:33:22;;;;;;;33.83;18.52;;;12.10;53.90;;;;;;9178573;19;20116;-65
2022/03/20 11:36:27;;;;;;;40.78;19.60;;;12.10;53.80;;;;;;9170662;19;20956;-65
2022/03/20 11:39:33;;;;;;;38.55;19.10;;;12.10;53.80;;;;;;9181724;19;20022;-66
2022/03/20 11:42:38;;;;;;;33.17;18.02;;;12.10;53.80;;;;;;9176122;19;20149;-65
2022/03/20 11:46:21;;;;;;;41.70;19.60;;;12.10;53.70;;;;;;9182029;19;20044;-65
2022/03/20 11:49:29;;;;;;;37.92;20.00;;;12.10;53.50;;;;;;9175784;19;20026;-62
2022/03/20 11:52:46;;;;;;;34.40;18.33;;;12.10;53.70;;;;;;9174402;19;20052;-65
2022/03/20 11:55:53;;;;;;;34.83;19.60;;;12.20;53.50;;;;;;9172030;19;20048;-64
2022/03/20 11:58:58;;;;;;;34.00;20.15;;;12.20;53.60;;;;;;9177544;19;20022;-63
2022/03/20 12:02:07;;;;;;;35.78;19.30;;;12.10;53.60;;;;;;9177156;19;20022;-65
2022/03/20 12:05:21;;;;;;;34.78;20.30;;;12.20;53.50;;;;;;9178155;19;20365;-65
2022/03/20 12:08:43;;;;;;;38.22;20.00;;;12.20;53.40;;;;;;9178618;19;20022;-64
2022/03/20 12:12:12;;;;;;;47.00;20.73;;;12.20;53.30;;;;;;9176789;19;20014;-65
2022/03/20 12:15:23;;;;;;;39.22;20.15;;;12.10;53.20;;;;;;9178187;19;20660;-65
2022/03/20 12:18:31;;;;;;;36.40;19.20;;;12.10;53.30;;;;;;9180718;19;20010;-65
2022/03/20 12:21:57;;;;;;;43.03;22.00;;;12.10;53.40;;;;;;9177890;19;20018;-64
2022/03/20 12:25:05;;;;;;;37.53;20.02;;;12.10;53.20;;;;;;9179064;19;20018;-67
2022/03/20 12:28:30;;;;;;;42.50;19.48;;;12.10;53.40;;;;;;9178256;19;20026;-66
2022/03/20 12:31:56;;;;;;;37.67;19.45;;;12.10;53.20;;;;;;9179883;19;20081;-65
2022/03/20 12:35:22;;;;;;;38.33;20.58;;;12.10;53.20;;;;;;9177932;19;20010;-64
2022/03/20 12:38:46;;;;;;;39.83;19.42;;;12.10;53.30;;;;;;9180881;19;20030;-65
2022/03/20 12:41:51;;;;;;;40.25;20.83;;;12.10;53.30;;;;;;9177547;19;20018;-65
2022/03/20 12:44:56;;;;;;;35.08;19.33;;;12.10;53.50;;;;;;9181899;19;20018;-66
2022/03/20 12:48:03;;;;;;;39.00;20.85;;;12.20;53.50;;;;;;9185463;19;20041;-64
2022/03/20 12:51:16;;;;;;;39.70;20.73;;;12.10;53.30;;;;;;9179441;19;20018;-65
2022/03/20 12:54:21;;;;;;;36.45;20.10;;;12.10;53.20;;;;;;9176931;19;20007;-63
2022/03/20 12:57:40;;;;;;;34.08;19.60;;;12.10;53.40;;;;;;9184191;19;20506;-66
2022/03/20 13:00:46;;;;;;;33.28;19.48;;;12.10;53.10;;;;;;9185557;19;20011;-66
2022/03/20 13:03:51;;;;;;;40.15;21.58;;;12.20;53.90;;;;;;9183022;19;20040;-67
2022/03/20 13:07:00;;;;;;;39.10;20.10;;;12.20;53.40;;;;;;9183398;19;20467;-65
2022/03/20 13:10:05;;;;;;;36.25;21.02;;;12.20;53.30;;;;;;9181213;19;20014;-65
2022/03/20 13:13:14;;;;;;;35.03;20.63;;;12.20;53.30;;;;;;9182592;19;20592;-65
2022/03/20 13:16:24;;;;;;;37.47;20.38;;;12.30;53.40;;;;;;9182639;19;20014;-67
2022/03/20 13:19:34;;;;;;;40.33;20.55;;;12.30;53.30;;;;;;9182718;19;20021;-66
2022/03/20 13:22:42;;;;;;;39.05;21.02;;;12.40;53.20;;;;;;9182506;19;20212;-64
2022/03/20 13:25:49;;;;;;;38.33;20.40;;;12.40;53.20;;;;;;9182374;19;20011;-64
2022/03/20 13:28:54;;;;;;;41.42;20.58;;;12.50;53.30;;;;;;9180273;19;20436;-66
2022/03/20 13:32:08;;;;;;;40.45;20.42;;;12.50;53.10;;;;;;9184075;19;20025;-64
2022/03/20 13:35:21;;;;;;;42.33;21.02;;;12.60;53.00;;;;;;9184312;19;20015;-67
2022/03/20 13:38:37;;;;;;;36.03;20.80;;;12.70;53.10;;;;;;9184399;19;20479;-65
2022/03/20 13:41:44;;;;;;;41.47;20.00;;;12.70;52.90;;;;;;9181586;19;20330;-65
2022/03/20 13:44:53;;;;;;;35.97;19.90;;;12.70;53.00;;;;;;9183704;19;20035;-65
2022/03/20 13:47:59;;;;;;;38.60;19.85;;;12.80;53.00;;;;;;9181260;19;20341;-65
2022/03/20 13:51:17;;;;;;;38.30;21.73;;;12.80;52.90;;;;;;9223968;19;20997;-65
2022/03/20 13:54:23;;;;;;;39.05;21.23;;;12.80;52.80;;;;;;9221819;19;20017;-65
2022/03/20 13:57:30;;;;;;;44.75;21.92;;;12.90;52.90;;;;;;9225292;19;20513;-67
2022/03/20 14:00:38;;;;;;;43.92;21.85;;;12.90;52.90;;;;;;9225117;19;20089;-63
2022/03/20 14:03:44;;;;;;;44.20;22.42;;;12.90;52.90;;;;;;9224384;19;20012;-65
2022/03/20 14:06:54;;;;;;;43.60;22.83;;;13.00;53.00;;;;;;9223080;19;20097;-65
2022/03/20 14:09:59;;;;;;;35.47;20.85;;;13.00;53.00;;;;;;9221277;19;20029;-65
2022/03/20 14:13:19;;;;;;;38.55;20.90;;;13.10;53.00;;;;;;9224850;19;20480;-65
2022/03/20 14:16:24;;;;;;;33.83;19.75;;;13.10;52.90;;;;;;9224781;19;20014;-65
2022/03/20 14:19:29;;;;;;;36.95;22.27;;;13.10;53.00;;;;;;9224090;19;20052;-64
2022/03/20 14:22:47;;;;;;;39.72;21.60;;;13.20;53.00;;;;;;9220536;19;20007;-64
2022/03/20 14:25:53;;;;;;;41.20;21.23;;;13.20;52.90;;;;;;9222895;19;20029;-64
2022/03/20 14:29:08;;;;;;;38.20;21.52;;;13.20;53.00;;;;;;9223822;19;20471;-64
2022/03/20 14:39:30;;;;;;;37.80;22.35;;;13.30;53.10;;;;;;9217718;19;20094;-64
2022/03/20 14:42:37;;;;;;;38.92;23.20;;;13.30;53.30;;;;;;9212620;19;20022;-65
2022/03/20 14:45:42;;;;;;;43.75;23.90;;;13.30;53.50;;;;;;9210865;19;20025;-64
2022/03/20 14:48:47;;;;;;;43.22;23.42;;;13.30;53.60;;;;;;9205663;19;20014;-63
2022/03/20 14:51:53;;;;;;;41.05;23.23;;;13.20;53.70;;;;;;9206508;19;20418;-64
2022/03/20 14:55:04;;;;;;;45.17;24.70;;;13.20;53.90;;;;;;9212127;19;20503;-64
2022/03/20 14:58:11;;;;;;;45.80;25.02;;;13.20;54.00;;;;;;9213447;19;20025;-64
2022/03/20 15:01:16;;;;;;;47.97;24.90;;;13.10;54.10;;;;;;9194893;19;20498;-64
2022/03/20 15:04:22;;;;;;;41.55;24.27;;;13.10;54.20;;;;;;9177950;19;20523;-64
2022/03/20 15:07:27;;;;;;;43.72;26.05;;;13.00;54.30;;;;;;9179705;19;20033;-64
2022/03/20 15:13:52;;;;;;;48.97;27.27;;;12.90;54.60;;;;;;9173315;19;20015;-64
2022/03/20 15:16:58;;;;;;;50.78;26.58;;;12.80;54.80;;;;;;9177816;19;20340;-64
2022/03/20 15:20:03;;;;;;;45.95;26.80;;;12.80;55.00;;;;;;9181174;19;20070;-63
2022/03/20 15:23:10;;;;;;;49.03;27.45;;;12.70;55.20;;;;;;9174321;19;20019;-64
2022/03/20 15:26:18;;;;;;;49.50;26.88;;;12.60;55.30;;;;;;9176408;19;20018;-64
2022/03/20 15:29:23;;;;;;;49.30;27.80;;;12.60;55.70;;;;;;9178715;19;20019;-64
2022/03/20 15:32:29;;;;;;;50.20;28.55;;;12.50;55.80;;;;;;9178072;19;20023;-66
2022/03/20 15:35:34;;;;;;;48.97;27.25;;;12.40;56.00;;;;;;9173694;19;20356;-63
2022/03/20 15:38:40;;;;;;;44.28;26.63;;;12.30;56.20;;;;;;9179895;19;20710;-66
2022/03/20 15:41:50;;;;;;;46.95;27.13;;;12.30;56.30;;;;;;9179107;19;20637;-62
2022/03/20 15:44:55;;;;;;;46.42;27.30;;;12.20;56.50;;;;;;9172690;19;20026;-64
2022/03/20 15:48:00;;;;;;;53.22;28.42;;;12.10;56.60;;;;;;9176080;19;20367;-64
2022/03/20 15:51:05;;;;;;;49.55;27.13;;;12.00;56.70;;;;;;9175558;19;20014;-65
2022/03/20 15:54:10;;;;;;;50.58;28.80;;;11.90;56.90;;;;;;9173748;19;20045;-63
2022/03/20 15:57:18;;;;;;;51.05;28.42;;;11.80;57.10;;;;;;9178683;19;20022;-64
2022/03/20 16:00:23;;;;;;;49.85;26.77;;;11.70;57.30;;;;;;9175722;19;20022;-65
2022/03/20 16:03:28;;;;;;;50.75;28.08;;;11.60;57.40;;;;;;9173445;19;20014;-65
2022/03/20 16:06:33;;;;;;;55.33;28.70;;;11.50;57.50;;;;;;9174480;19;20522;-66
2022/03/20 16:09:38;;;;;;;52.35;27.92;;;11.50;57.70;;;;;;9171503;19;20027;-65
2022/03/20 16:12:58;;;;;;;49.35;28.42;;;11.40;58.50;;;;;;9172868;19;20049;-65
2022/03/20 16:16:03;;;;;;;48.58;27.80;;;11.30;58.00;;;;;;9178904;19;20015;-65
2022/03/20 16:19:08;;;;;;;47.85;27.85;;;11.20;58.10;;;;;;9177172;19;20014;-65
2022/03/20 16:22:13;;;;;;;49.63;28.65;;;11.10;58.20;;;;;;9176377;19;20030;-65
2022/03/20 16:28:39;;;;;;;53.85;30.63;;;11.00;58.50;;;;;;9176347;19;20010;-65
2022/03/20 16:31:45;;;;;;;49.72;27.70;;;11.00;58.60;;;;;;9176763;19;20018;-65
2022/03/20 16:34:51;;;;;;;50.45;28.88;;;10.90;58.70;;;;;;9177878;19;20010;-65
2022/03/20 16:37:56;;;;;;;49.83;29.75;;;10.90;58.80;;;;;;9175437;19;20010;-64
2022/03/20 16:41:01;;;;;;;52.10;28.83;;;10.80;58.90;;;;;;9175390;19;20014;-65
2022/03/20 16:44:11;;;;;;;53.90;30.48;;;10.80;59.10;;;;;;9176024;19;20579;-66
2022/03/20 16:47:16;;;;;;;57.67;30.27;;;10.80;59.30;;;;;;9175247;19;20383;-65